sensor_id;sensor_type;location;lat;lon;timestamp;temperature;humidity
12568;DHT22;6349;50.904;6.136;2023-01-19T00:00:17;1.90;99.90
12568;DHT22;6349;50.904;6.136;2023-01-19T00:02:17;1.90;99.90
12568;DHT22;6349;50.904;6.136;2023-01-19T00:04:18;2.00;99.90
12568;DHT22;6349;50.904;6.136;2023-01-19T00:06:19;1.90;99.90
12568;DHT22;6349;50.904;6.136;2023-01-19T00:08:20;1.90;99.90
12568;DHT22;6349;50.904;6.136;2023-01-19T00:10:20;1.90;99.90
12568;DHT22;6349;50.904;6.136;2023-01-19T00:12:21;1.90;99.90
12568;DHT22;6349;50.904;6.136;2023-01-19T00:14:22;1.90;99.90
12568;DHT22;6349;50.904;6.136;2023-01-19T00:16:22;1.90;99.90
12568;DHT22;6349;50.904;6.136;2023-01-19T00:18:23;1.90;99.90
12568;DHT22;6349;50.904;6.136;2023-01-19T00:20:25;1.90;99.90
12568;DHT22;6349;50.904;6.136;2023-01-19T00:22:26;1.90;99.90
12568;DHT22;6349;50.904;6.136;2023-01-19T00:24:26;1.90;99.90
12568;DHT22;6349;50.904;6.136;2023-01-19T00:26:27;1.90;99.90
12568;DHT22;6349;50.904;6.136;2023-01-19T00:28:28;1.90;99.90
12568;DHT22;6349;50.904;6.136;2023-01-19T00:30:29;1.90;99.90
12568;DHT22;6349;50.904;6.136;2023-01-19T00:32:29;1.90;99.90
12568;DHT22;6349;50.904;6.136;2023-01-19T00:34:30;1.90;99.90
12568;DHT22;6349;50.904;6.136;2023-01-19T00:36:48;1.90;99.90
12568;DHT22;6349;50.904;6.136;2023-01-19T00:38:49;2.00;99.90
12568;DHT22;6349;50.904;6.136;2023-01-19T00:40:50;1.90;99.90
12568;DHT22;6349;50.904;6.136;2023-01-19T00:42:50;1.90;99.90
12568;DHT22;6349;50.904;6.136;2023-01-19T00:44:51;1.90;99.90
12568;DHT22;6349;50.904;6.136;2023-01-19T00:46:52;2.00;99.90
12568;DHT22;6349;50.904;6.136;2023-01-19T00:48:52;2.00;99.90
12568;DHT22;6349;50.904;6.136;2023-01-19T00:50:53;1.90;99.90
12568;DHT22;6349;50.904;6.136;2023-01-19T00:52:54;1.90;99.90
12568;DHT22;6349;50.904;6.136;2023-01-19T00:54:56;1.90;99.90
12568;DHT22;6349;50.904;6.136;2023-01-19T00:56:56;1.90;99.90
12568;DHT22;6349;50.904;6.136;2023-01-19T00:58:57;1.90;99.90
12568;DHT22;6349;50.904;6.136;2023-01-19T01:00:58;1.90;99.90
12568;DHT22;6349;50.904;6.136;2023-01-19T01:03:02;1.90;99.90
12568;DHT22;6349;50.904;6.136;2023-01-19T01:05:04;1.90;99.90
12568;DHT22;6349;50.904;6.136;2023-01-19T01:07:06;1.90;99.90
12568;DHT22;6349;50.904;6.136;2023-01-19T01:09:06;1.90;99.90
12568;DHT22;6349;50.904;6.136;2023-01-19T01:11:11;1.90;99.90
12568;DHT22;6349;50.904;6.136;2023-01-19T01:13:11;1.90;99.90
12568;DHT22;6349;50.904;6.136;2023-01-19T01:15:14;1.90;99.90
12568;DHT22;6349;50.904;6.136;2023-01-19T01:17:15;1.90;99.90
12568;DHT22;6349;50.904;6.136;2023-01-19T01:19:16;1.90;99.90
12568;DHT22;6349;50.904;6.136;2023-01-19T01:21:16;1.90;99.90
12568;DHT22;6349;50.904;6.136;2023-01-19T01:23:17;1.90;99.90
12568;DHT22;6349;50.904;6.136;2023-01-19T01:25:23;1.90;99.90
12568;DHT22;6349;50.904;6.136;2023-01-19T01:27:24;1.90;99.90
12568;DHT22;6349;50.904;6.136;2023-01-19T01:29:24;1.90;99.90
12568;DHT22;6349;50.904;6.136;2023-01-19T01:31:25;1.80;99.90
12568;DHT22;6349;50.904;6.136;2023-01-19T01:33:26;1.80;99.90
12568;DHT22;6349;50.904;6.136;2023-01-19T01:35:27;1.80;99.90
12568;DHT22;6349;50.904;6.136;2023-01-19T01:37:27;1.80;99.90
12568;DHT22;6349;50.904;6.136;2023-01-19T01:39:28;1.80;99.90
12568;DHT22;6349;50.904;6.136;2023-01-19T01:41:29;1.80;99.90
12568;DHT22;6349;50.904;6.136;2023-01-19T01:43:49;1.80;99.90
12568;DHT22;6349;50.904;6.136;2023-01-19T01:45:52;1.80;99.90
12568;DHT22;6349;50.904;6.136;2023-01-19T01:48:00;1.80;99.90
12568;DHT22;6349;50.904;6.136;2023-01-19T01:50:09;1.80;99.90
12568;DHT22;6349;50.904;6.136;2023-01-19T01:52:12;1.80;99.90
12568;DHT22;6349;50.904;6.136;2023-01-19T01:54:24;1.80;99.90
12568;DHT22;6349;50.904;6.136;2023-01-19T01:56:31;1.80;99.90
12568;DHT22;6349;50.904;6.136;2023-01-19T01:58:34;1.80;99.90
12568;DHT22;6349;50.904;6.136;2023-01-19T02:00:35;1.80;99.90
12568;DHT22;6349;50.904;6.136;2023-01-19T02:02:56;1.80;99.90
12568;DHT22;6349;50.904;6.136;2023-01-19T02:05:04;1.80;99.90
12568;DHT22;6349;50.904;6.136;2023-01-19T02:07:07;1.70;99.90
12568;DHT22;6349;50.904;6.136;2023-01-19T02:09:28;1.70;99.90
12568;DHT22;6349;50.904;6.136;2023-01-19T02:11:52;1.70;99.90
12568;DHT22;6349;50.904;6.136;2023-01-19T02:14:14;1.70;99.90
12568;DHT22;6349;50.904;6.136;2023-01-19T02:16:16;1.70;99.90
12568;DHT22;6349;50.904;6.136;2023-01-19T02:18:18;1.70;99.90
12568;DHT22;6349;50.904;6.136;2023-01-19T02:20:20;1.70;99.90
12568;DHT22;6349;50.904;6.136;2023-01-19T02:22:30;1.70;99.90
12568;DHT22;6349;50.904;6.136;2023-01-19T02:24:35;1.70;99.90
12568;DHT22;6349;50.904;6.136;2023-01-19T02:26:39;1.70;99.90
12568;DHT22;6349;50.904;6.136;2023-01-19T02:28:43;1.70;99.90
12568;DHT22;6349;50.904;6.136;2023-01-19T02:30:45;1.60;99.90
12568;DHT22;6349;50.904;6.136;2023-01-19T02:32:45;1.70;99.90
12568;DHT22;6349;50.904;6.136;2023-01-19T02:34:46;1.70;99.90
12568;DHT22;6349;50.904;6.136;2023-01-19T02:36:53;1.70;99.90
12568;DHT22;6349;50.904;6.136;2023-01-19T02:38:55;1.70;99.90
12568;DHT22;6349;50.904;6.136;2023-01-19T02:40:59;1.60;99.90
12568;DHT22;6349;50.904;6.136;2023-01-19T02:43:01;1.60;99.90
12568;DHT22;6349;50.904;6.136;2023-01-19T02:45:03;1.60;99.90
12568;DHT22;6349;50.904;6.136;2023-01-19T02:47:06;1.60;99.90
12568;DHT22;6349;50.904;6.136;2023-01-19T02:49:07;1.60;99.90
12568;DHT22;6349;50.904;6.136;2023-01-19T02:51:13;1.70;99.90
12568;DHT22;6349;50.904;6.136;2023-01-19T02:53:43;1.70;99.90
12568;DHT22;6349;50.904;6.136;2023-01-19T02:55:52;1.70;99.90
12568;DHT22;6349;50.904;6.136;2023-01-19T02:58:36;1.70;99.90
12568;DHT22;6349;50.904;6.136;2023-01-19T03:03:44;1.70;99.90
12568;DHT22;6349;50.904;6.136;2023-01-19T03:05:53;1.70;99.90
12568;DHT22;6349;50.904;6.136;2023-01-19T03:08:06;1.70;99.90
12568;DHT22;6349;50.904;6.136;2023-01-19T03:10:22;1.70;99.90
12568;DHT22;6349;50.904;6.136;2023-01-19T03:14:45;1.70;99.90
12568;DHT22;6349;50.904;6.136;2023-01-19T03:16:50;1.70;99.90
12568;DHT22;6349;50.904;6.136;2023-01-19T03:18:58;1.70;99.90
12568;DHT22;6349;50.904;6.136;2023-01-19T03:21:05;1.70;99.90
12568;DHT22;6349;50.904;6.136;2023-01-19T03:23:09;1.70;99.90
12568;DHT22;6349;50.904;6.136;2023-01-19T03:25:10;1.70;99.90
12568;DHT22;6349;50.904;6.136;2023-01-19T03:27:20;1.70;99.90
12568;DHT22;6349;50.904;6.136;2023-01-19T03:29:23;1.80;99.90
12568;DHT22;6349;50.904;6.136;2023-01-19T03:31:28;1.80;99.90
12568;DHT22;6349;50.904;6.136;2023-01-19T03:33:32;1.80;99.90
12568;DHT22;6349;50.904;6.136;2023-01-19T03:35:41;1.80;99.90
12568;DHT22;6349;50.904;6.136;2023-01-19T03:37:44;1.80;99.90
12568;DHT22;6349;50.904;6.136;2023-01-19T03:39:46;1.90;99.90
12568;DHT22;6349;50.904;6.136;2023-01-19T03:41:48;1.90;99.90
12568;DHT22;6349;50.904;6.136;2023-01-19T03:43:51;1.90;99.90
12568;DHT22;6349;50.904;6.136;2023-01-19T03:45:54;1.90;99.90
12568;DHT22;6349;50.904;6.136;2023-01-19T03:47:56;1.90;99.90
12568;DHT22;6349;50.904;6.136;2023-01-19T03:50:01;1.90;99.90
12568;DHT22;6349;50.904;6.136;2023-01-19T03:52:03;1.90;99.90
12568;DHT22;6349;50.904;6.136;2023-01-19T03:54:05;1.90;99.90
12568;DHT22;6349;50.904;6.136;2023-01-19T03:56:18;1.90;99.90
12568;DHT22;6349;50.904;6.136;2023-01-19T03:58:21;1.90;99.90
12568;DHT22;6349;50.904;6.136;2023-01-19T04:00:21;1.90;99.90
12568;DHT22;6349;50.904;6.136;2023-01-19T04:02:23;2.00;99.90
12568;DHT22;6349;50.904;6.136;2023-01-19T04:04:24;2.00;99.90
12568;DHT22;6349;50.904;6.136;2023-01-19T04:06:27;2.00;99.90
12568;DHT22;6349;50.904;6.136;2023-01-19T04:08:30;1.90;99.90
12568;DHT22;6349;50.904;6.136;2023-01-19T04:10:31;2.00;99.90
12568;DHT22;6349;50.904;6.136;2023-01-19T04:12:32;2.00;99.90
12568;DHT22;6349;50.904;6.136;2023-01-19T04:14:33;2.00;99.90
12568;DHT22;6349;50.904;6.136;2023-01-19T04:16:34;1.90;99.90
12568;DHT22;6349;50.904;6.136;2023-01-19T04:18:34;2.00;99.90
12568;DHT22;6349;50.904;6.136;2023-01-19T04:20:36;2.00;99.90
12568;DHT22;6349;50.904;6.136;2023-01-19T04:22:36;2.00;99.90
12568;DHT22;6349;50.904;6.136;2023-01-19T04:24:38;2.00;99.90
12568;DHT22;6349;50.904;6.136;2023-01-19T04:26:39;2.00;99.90
12568;DHT22;6349;50.904;6.136;2023-01-19T04:28:39;2.00;99.90
12568;DHT22;6349;50.904;6.136;2023-01-19T04:30:41;2.00;99.90
12568;DHT22;6349;50.904;6.136;2023-01-19T04:32:41;2.00;99.90
12568;DHT22;6349;50.904;6.136;2023-01-19T04:34:43;2.00;99.90
12568;DHT22;6349;50.904;6.136;2023-01-19T04:36:44;2.00;99.90
12568;DHT22;6349;50.904;6.136;2023-01-19T04:38:46;2.00;99.90
12568;DHT22;6349;50.904;6.136;2023-01-19T04:40:48;2.10;99.90
12568;DHT22;6349;50.904;6.136;2023-01-19T04:42:49;2.10;99.90
12568;DHT22;6349;50.904;6.136;2023-01-19T04:44:50;2.00;99.90
12568;DHT22;6349;50.904;6.136;2023-01-19T04:46:52;2.10;99.90
12568;DHT22;6349;50.904;6.136;2023-01-19T04:48:52;2.10;99.90
12568;DHT22;6349;50.904;6.136;2023-01-19T04:50:53;2.10;99.90
12568;DHT22;6349;50.904;6.136;2023-01-19T04:52:54;2.10;99.90
12568;DHT22;6349;50.904;6.136;2023-01-19T04:54:54;2.10;99.90
12568;DHT22;6349;50.904;6.136;2023-01-19T04:56:55;2.10;99.90
12568;DHT22;6349;50.904;6.136;2023-01-19T04:58:57;2.10;99.90
12568;DHT22;6349;50.904;6.136;2023-01-19T05:00:57;2.20;99.90
12568;DHT22;6349;50.904;6.136;2023-01-19T05:02:58;2.10;99.90
12568;DHT22;6349;50.904;6.136;2023-01-19T05:05:01;2.10;99.90
12568;DHT22;6349;50.904;6.136;2023-01-19T05:07:02;2.00;99.90
12568;DHT22;6349;50.904;6.136;2023-01-19T05:09:02;2.10;99.90
12568;DHT22;6349;50.904;6.136;2023-01-19T05:11:03;2.10;99.90
12568;DHT22;6349;50.904;6.136;2023-01-19T05:13:04;2.10;99.90
12568;DHT22;6349;50.904;6.136;2023-01-19T05:15:05;2.10;99.90
12568;DHT22;6349;50.904;6.136;2023-01-19T05:17:07;2.20;99.90
12568;DHT22;6349;50.904;6.136;2023-01-19T05:19:08;2.10;99.90
12568;DHT22;6349;50.904;6.136;2023-01-19T05:21:08;2.10;99.90
12568;DHT22;6349;50.904;6.136;2023-01-19T05:23:09;2.10;99.90
12568;DHT22;6349;50.904;6.136;2023-01-19T05:25:10;2.00;99.90
12568;DHT22;6349;50.904;6.136;2023-01-19T05:27:10;2.00;99.90
12568;DHT22;6349;50.904;6.136;2023-01-19T05:29:11;2.10;99.90
12568;DHT22;6349;50.904;6.136;2023-01-19T05:31:12;2.00;99.90
12568;DHT22;6349;50.904;6.136;2023-01-19T05:33:12;2.00;99.90
12568;DHT22;6349;50.904;6.136;2023-01-19T05:35:13;2.00;99.90
12568;DHT22;6349;50.904;6.136;2023-01-19T05:37:14;2.00;99.90
12568;DHT22;6349;50.904;6.136;2023-01-19T05:39:15;1.90;99.90
12568;DHT22;6349;50.904;6.136;2023-01-19T05:41:16;2.00;99.90
12568;DHT22;6349;50.904;6.136;2023-01-19T05:43:17;2.00;99.90
12568;DHT22;6349;50.904;6.136;2023-01-19T05:45:17;2.00;99.90
12568;DHT22;6349;50.904;6.136;2023-01-19T05:47:18;1.90;99.90
12568;DHT22;6349;50.904;6.136;2023-01-19T05:49:19;1.90;99.90
12568;DHT22;6349;50.904;6.136;2023-01-19T05:51:19;1.90;99.90
12568;DHT22;6349;50.904;6.136;2023-01-19T05:53:20;1.90;99.90
12568;DHT22;6349;50.904;6.136;2023-01-19T05:55:21;1.90;99.90
12568;DHT22;6349;50.904;6.136;2023-01-19T05:57:22;1.90;99.90
12568;DHT22;6349;50.904;6.136;2023-01-19T05:59:23;1.90;99.90
12568;DHT22;6349;50.904;6.136;2023-01-19T06:01:23;1.80;99.90
12568;DHT22;6349;50.904;6.136;2023-01-19T06:03:24;1.90;99.90
12568;DHT22;6349;50.904;6.136;2023-01-19T06:05:25;1.90;99.90
12568;DHT22;6349;50.904;6.136;2023-01-19T06:07:25;1.90;99.90
12568;DHT22;6349;50.904;6.136;2023-01-19T06:09:27;1.90;99.90
12568;DHT22;6349;50.904;6.136;2023-01-19T06:11:28;1.90;99.90
12568;DHT22;6349;50.904;6.136;2023-01-19T06:13:29;1.90;99.90
12568;DHT22;6349;50.904;6.136;2023-01-19T06:15:29;1.90;99.90
12568;DHT22;6349;50.904;6.136;2023-01-19T06:17:31;1.90;99.90
12568;DHT22;6349;50.904;6.136;2023-01-19T06:19:33;1.80;99.90
12568;DHT22;6349;50.904;6.136;2023-01-19T06:21:34;1.90;99.90
12568;DHT22;6349;50.904;6.136;2023-01-19T06:23:35;1.90;99.90
12568;DHT22;6349;50.904;6.136;2023-01-19T06:25:35;1.90;99.90
12568;DHT22;6349;50.904;6.136;2023-01-19T06:27:36;1.90;99.90
12568;DHT22;6349;50.904;6.136;2023-01-19T06:29:39;1.90;99.90
12568;DHT22;6349;50.904;6.136;2023-01-19T06:31:40;1.90;99.90
12568;DHT22;6349;50.904;6.136;2023-01-19T06:33:41;1.90;99.90
12568;DHT22;6349;50.904;6.136;2023-01-19T06:35:43;2.00;99.90
12568;DHT22;6349;50.904;6.136;2023-01-19T06:37:44;2.00;99.90
12568;DHT22;6349;50.904;6.136;2023-01-19T06:39:45;2.00;99.90
12568;DHT22;6349;50.904;6.136;2023-01-19T06:41:46;1.90;99.90
12568;DHT22;6349;50.904;6.136;2023-01-19T06:43:46;1.90;99.90
12568;DHT22;6349;50.904;6.136;2023-01-19T06:45:47;1.90;99.90
12568;DHT22;6349;50.904;6.136;2023-01-19T06:47:48;1.80;99.90
12568;DHT22;6349;50.904;6.136;2023-01-19T06:49:48;1.80;99.90
12568;DHT22;6349;50.904;6.136;2023-01-19T06:51:49;1.80;99.90
12568;DHT22;6349;50.904;6.136;2023-01-19T06:53:50;1.80;99.90
12568;DHT22;6349;50.904;6.136;2023-01-19T06:55:50;1.80;99.90
12568;DHT22;6349;50.904;6.136;2023-01-19T06:57:58;1.80;99.90
12568;DHT22;6349;50.904;6.136;2023-01-19T06:59:59;1.80;99.90
12568;DHT22;6349;50.904;6.136;2023-01-19T07:02:01;1.80;99.90
12568;DHT22;6349;50.904;6.136;2023-01-19T07:04:02;1.70;99.90
12568;DHT22;6349;50.904;6.136;2023-01-19T07:06:03;1.70;99.90
12568;DHT22;6349;50.904;6.136;2023-01-19T07:08:05;1.70;99.90
12568;DHT22;6349;50.904;6.136;2023-01-19T07:10:07;1.70;99.90
12568;DHT22;6349;50.904;6.136;2023-01-19T07:12:07;1.70;99.90
12568;DHT22;6349;50.904;6.136;2023-01-19T07:14:08;1.70;99.90
12568;DHT22;6349;50.904;6.136;2023-01-19T07:16:11;1.80;99.90
12568;DHT22;6349;50.904;6.136;2023-01-19T07:18:12;1.70;99.90
12568;DHT22;6349;50.904;6.136;2023-01-19T07:20:13;1.70;99.90
12568;DHT22;6349;50.904;6.136;2023-01-19T07:22:13;1.70;99.90
12568;DHT22;6349;50.904;6.136;2023-01-19T07:24:14;1.70;99.90
12568;DHT22;6349;50.904;6.136;2023-01-19T07:26:15;1.70;99.90
12568;DHT22;6349;50.904;6.136;2023-01-19T07:28:18;1.70;99.90
12568;DHT22;6349;50.904;6.136;2023-01-19T07:30:19;1.70;99.90
12568;DHT22;6349;50.904;6.136;2023-01-19T07:32:20;1.70;99.90
12568;DHT22;6349;50.904;6.136;2023-01-19T07:34:21;1.70;99.90
12568;DHT22;6349;50.904;6.136;2023-01-19T07:36:21;1.70;99.90
12568;DHT22;6349;50.904;6.136;2023-01-19T07:38:22;1.70;99.90
12568;DHT22;6349;50.904;6.136;2023-01-19T07:40:23;1.70;99.90
12568;DHT22;6349;50.904;6.136;2023-01-19T07:42:23;1.60;99.90
12568;DHT22;6349;50.904;6.136;2023-01-19T07:44:24;1.70;99.90
12568;DHT22;6349;50.904;6.136;2023-01-19T07:46:25;1.70;99.90
12568;DHT22;6349;50.904;6.136;2023-01-19T07:48:26;1.70;99.90
12568;DHT22;6349;50.904;6.136;2023-01-19T07:50:27;1.70;99.90
12568;DHT22;6349;50.904;6.136;2023-01-19T07:52:28;1.70;99.90
12568;DHT22;6349;50.904;6.136;2023-01-19T07:54:29;1.70;99.90
12568;DHT22;6349;50.904;6.136;2023-01-19T07:56:29;1.70;99.90
12568;DHT22;6349;50.904;6.136;2023-01-19T07:58:32;1.80;99.90
12568;DHT22;6349;50.904;6.136;2023-01-19T08:00:34;1.80;99.90
12568;DHT22;6349;50.904;6.136;2023-01-19T08:02:35;1.80;99.90
12568;DHT22;6349;50.904;6.136;2023-01-19T08:04:37;1.80;99.90
12568;DHT22;6349;50.904;6.136;2023-01-19T08:06:38;1.80;99.90
12568;DHT22;6349;50.904;6.136;2023-01-19T08:08:39;1.80;99.90
12568;DHT22;6349;50.904;6.136;2023-01-19T08:10:40;1.80;99.90
12568;DHT22;6349;50.904;6.136;2023-01-19T08:12:41;1.90;99.90
12568;DHT22;6349;50.904;6.136;2023-01-19T08:14:42;1.80;99.90
12568;DHT22;6349;50.904;6.136;2023-01-19T08:16:43;1.80;99.90
12568;DHT22;6349;50.904;6.136;2023-01-19T08:18:43;1.80;99.90
12568;DHT22;6349;50.904;6.136;2023-01-19T08:20:44;1.80;99.90
12568;DHT22;6349;50.904;6.136;2023-01-19T08:22:46;1.80;99.90
12568;DHT22;6349;50.904;6.136;2023-01-19T08:24:46;1.80;99.90
12568;DHT22;6349;50.904;6.136;2023-01-19T08:26:48;1.80;99.90
12568;DHT22;6349;50.904;6.136;2023-01-19T08:28:49;1.90;99.90
12568;DHT22;6349;50.904;6.136;2023-01-19T08:30:49;1.80;99.90
12568;DHT22;6349;50.904;6.136;2023-01-19T08:32:53;1.90;99.90
12568;DHT22;6349;50.904;6.136;2023-01-19T08:34:57;1.90;99.90
12568;DHT22;6349;50.904;6.136;2023-01-19T08:36:58;1.90;99.90
12568;DHT22;6349;50.904;6.136;2023-01-19T08:38:59;1.90;99.90
12568;DHT22;6349;50.904;6.136;2023-01-19T08:40:59;1.90;99.90
12568;DHT22;6349;50.904;6.136;2023-01-19T08:43:02;1.90;99.90
12568;DHT22;6349;50.904;6.136;2023-01-19T08:45:04;1.90;99.90
12568;DHT22;6349;50.904;6.136;2023-01-19T08:47:05;2.00;99.90
12568;DHT22;6349;50.904;6.136;2023-01-19T08:49:07;2.00;99.90
12568;DHT22;6349;50.904;6.136;2023-01-19T08:51:08;1.90;99.90
12568;DHT22;6349;50.904;6.136;2023-01-19T08:53:09;1.90;99.90
12568;DHT22;6349;50.904;6.136;2023-01-19T08:55:10;2.00;99.90
12568;DHT22;6349;50.904;6.136;2023-01-19T08:57:10;2.00;99.90
12568;DHT22;6349;50.904;6.136;2023-01-19T08:59:11;2.00;99.90
12568;DHT22;6349;50.904;6.136;2023-01-19T09:01:12;2.00;99.90
12568;DHT22;6349;50.904;6.136;2023-01-19T09:03:16;2.00;99.90
12568;DHT22;6349;50.904;6.136;2023-01-19T09:05:17;2.10;99.90
12568;DHT22;6349;50.904;6.136;2023-01-19T09:07:18;2.10;99.90
12568;DHT22;6349;50.904;6.136;2023-01-19T09:09:18;2.10;99.90
12568;DHT22;6349;50.904;6.136;2023-01-19T09:11:19;2.10;99.90
12568;DHT22;6349;50.904;6.136;2023-01-19T09:13:20;2.10;99.90
12568;DHT22;6349;50.904;6.136;2023-01-19T09:15:21;2.10;99.90
12568;DHT22;6349;50.904;6.136;2023-01-19T09:17:21;2.00;99.90
12568;DHT22;6349;50.904;6.136;2023-01-19T09:19:22;2.10;99.90
12568;DHT22;6349;50.904;6.136;2023-01-19T09:21:23;2.10;99.90
12568;DHT22;6349;50.904;6.136;2023-01-19T09:23:23;2.10;99.90
12568;DHT22;6349;50.904;6.136;2023-01-19T09:25:25;2.10;99.90
12568;DHT22;6349;50.904;6.136;2023-01-19T09:27:25;2.10;99.90
12568;DHT22;6349;50.904;6.136;2023-01-19T09:29:26;2.20;99.90
12568;DHT22;6349;50.904;6.136;2023-01-19T09:31:27;2.20;99.90
12568;DHT22;6349;50.904;6.136;2023-01-19T09:33:27;2.20;99.90
12568;DHT22;6349;50.904;6.136;2023-01-19T09:35:32;2.10;99.90
12568;DHT22;6349;50.904;6.136;2023-01-19T09:37:33;2.20;99.90
12568;DHT22;6349;50.904;6.136;2023-01-19T09:39:33;2.20;99.90
12568;DHT22;6349;50.904;6.136;2023-01-19T09:41:35;2.20;99.90
12568;DHT22;6349;50.904;6.136;2023-01-19T09:43:43;2.30;99.90
12568;DHT22;6349;50.904;6.136;2023-01-19T09:45:57;2.30;99.90
12568;DHT22;6349;50.904;6.136;2023-01-19T09:47:58;2.30;99.90
12568;DHT22;6349;50.904;6.136;2023-01-19T09:50:08;2.30;99.90
12568;DHT22;6349;50.904;6.136;2023-01-19T09:52:12;2.40;99.90
12568;DHT22;6349;50.904;6.136;2023-01-19T09:54:16;2.40;99.90
12568;DHT22;6349;50.904;6.136;2023-01-19T09:56:19;2.40;99.90
12568;DHT22;6349;50.904;6.136;2023-01-19T09:58:20;2.40;99.90
12568;DHT22;6349;50.904;6.136;2023-01-19T10:00:22;2.40;99.90
12568;DHT22;6349;50.904;6.136;2023-01-19T10:02:36;2.40;99.90
12568;DHT22;6349;50.904;6.136;2023-01-19T10:04:42;2.40;99.90
12568;DHT22;6349;50.904;6.136;2023-01-19T10:06:44;2.50;99.90
12568;DHT22;6349;50.904;6.136;2023-01-19T10:08:54;2.40;99.90
12568;DHT22;6349;50.904;6.136;2023-01-19T10:10:59;2.40;99.90
12568;DHT22;6349;50.904;6.136;2023-01-19T10:13:24;2.40;99.90
12568;DHT22;6349;50.904;6.136;2023-01-19T10:18:03;2.40;99.90
12568;DHT22;6349;50.904;6.136;2023-01-19T10:20:18;2.50;99.90
12568;DHT22;6349;50.904;6.136;2023-01-19T10:22:22;2.50;99.90
12568;DHT22;6349;50.904;6.136;2023-01-19T10:24:31;2.50;99.90
12568;DHT22;6349;50.904;6.136;2023-01-19T10:26:40;2.50;99.90
12568;DHT22;6349;50.904;6.136;2023-01-19T10:28:43;2.50;99.90
12568;DHT22;6349;50.904;6.136;2023-01-19T10:30:45;2.50;99.90
12568;DHT22;6349;50.904;6.136;2023-01-19T10:32:47;2.50;99.90
12568;DHT22;6349;50.904;6.136;2023-01-19T10:34:49;2.60;99.90
12568;DHT22;6349;50.904;6.136;2023-01-19T10:36:58;2.60;99.90
12568;DHT22;6349;50.904;6.136;2023-01-19T10:39:04;2.60;99.90
12568;DHT22;6349;50.904;6.136;2023-01-19T10:41:19;2.60;99.90
12568;DHT22;6349;50.904;6.136;2023-01-19T10:43:40;2.60;99.90
12568;DHT22;6349;50.904;6.136;2023-01-19T10:45:41;2.70;99.90
12568;DHT22;6349;50.904;6.136;2023-01-19T10:47:43;2.70;99.90
12568;DHT22;6349;50.904;6.136;2023-01-19T10:49:46;2.70;99.90
12568;DHT22;6349;50.904;6.136;2023-01-19T10:51:48;2.70;99.90
12568;DHT22;6349;50.904;6.136;2023-01-19T10:53:57;2.70;99.90
12568;DHT22;6349;50.904;6.136;2023-01-19T10:56:24;2.70;99.90
12568;DHT22;6349;50.904;6.136;2023-01-19T10:58:29;2.80;99.90
12568;DHT22;6349;50.904;6.136;2023-01-19T11:00:33;2.80;99.90
12568;DHT22;6349;50.904;6.136;2023-01-19T11:02:36;2.80;99.90
12568;DHT22;6349;50.904;6.136;2023-01-19T11:04:50;2.80;99.90
12568;DHT22;6349;50.904;6.136;2023-01-19T11:06:52;3.10;99.90
12568;DHT22;6349;50.904;6.136;2023-01-19T11:09:19;2.90;99.90
12568;DHT22;6349;50.904;6.136;2023-01-19T11:11:20;2.90;99.90
12568;DHT22;6349;50.904;6.136;2023-01-19T11:13:22;2.90;99.90
12568;DHT22;6349;50.904;6.136;2023-01-19T11:15:29;2.80;99.90
12568;DHT22;6349;50.904;6.136;2023-01-19T11:17:31;2.80;99.90
12568;DHT22;6349;50.904;6.136;2023-01-19T11:19:33;2.70;99.90
12568;DHT22;6349;50.904;6.136;2023-01-19T11:21:39;2.70;99.90
12568;DHT22;6349;50.904;6.136;2023-01-19T11:23:45;2.70;99.90
12568;DHT22;6349;50.904;6.136;2023-01-19T11:25:48;2.70;99.90
12568;DHT22;6349;50.904;6.136;2023-01-19T11:27:50;2.70;99.90
12568;DHT22;6349;50.904;6.136;2023-01-19T11:30:19;2.70;99.90
12568;DHT22;6349;50.904;6.136;2023-01-19T11:32:22;3.10;99.90
12568;DHT22;6349;50.904;6.136;2023-01-19T11:34:38;2.80;99.90
12568;DHT22;6349;50.904;6.136;2023-01-19T11:36:38;2.80;99.90
12568;DHT22;6349;50.904;6.136;2023-01-19T11:38:41;2.80;99.90
12568;DHT22;6349;50.904;6.136;2023-01-19T11:40:51;2.80;99.90
12568;DHT22;6349;50.904;6.136;2023-01-19T11:42:52;2.80;99.90
12568;DHT22;6349;50.904;6.136;2023-01-19T11:45:06;2.80;99.90
12568;DHT22;6349;50.904;6.136;2023-01-19T11:47:16;2.90;99.90
12568;DHT22;6349;50.904;6.136;2023-01-19T11:49:41;2.90;99.90
12568;DHT22;6349;50.904;6.136;2023-01-19T11:51:51;3.00;99.90
12568;DHT22;6349;50.904;6.136;2023-01-19T11:53:55;2.90;99.90
12568;DHT22;6349;50.904;6.136;2023-01-19T11:56:10;2.80;99.90
12568;DHT22;6349;50.904;6.136;2023-01-19T11:58:18;2.90;99.90
12568;DHT22;6349;50.904;6.136;2023-01-19T12:00:26;2.90;99.90
12568;DHT22;6349;50.904;6.136;2023-01-19T12:02:40;2.90;99.90
12568;DHT22;6349;50.904;6.136;2023-01-19T12:04:42;2.90;99.90
12568;DHT22;6349;50.904;6.136;2023-01-19T12:06:47;2.90;99.90
12568;DHT22;6349;50.904;6.136;2023-01-19T12:08:54;2.90;99.90
12568;DHT22;6349;50.904;6.136;2023-01-19T12:10:57;2.90;99.90
12568;DHT22;6349;50.904;6.136;2023-01-19T12:12:59;2.90;99.90
12568;DHT22;6349;50.904;6.136;2023-01-19T12:15:39;2.90;99.90
12568;DHT22;6349;50.904;6.136;2023-01-19T12:17:32;2.90;99.90
12568;DHT22;6349;50.904;6.136;2023-01-19T12:19:44;2.80;99.90
12568;DHT22;6349;50.904;6.136;2023-01-19T12:21:46;2.90;99.90
12568;DHT22;6349;50.904;6.136;2023-01-19T12:24:27;2.80;99.90
12568;DHT22;6349;50.904;6.136;2023-01-19T12:26:40;2.80;99.90
12568;DHT22;6349;50.904;6.136;2023-01-19T12:28:45;2.90;99.90
12568;DHT22;6349;50.904;6.136;2023-01-19T12:30:49;2.90;99.90
12568;DHT22;6349;50.904;6.136;2023-01-19T12:32:51;2.90;99.90
12568;DHT22;6349;50.904;6.136;2023-01-19T12:37:52;2.90;99.90
12568;DHT22;6349;50.904;6.136;2023-01-19T12:39:53;2.90;99.90
12568;DHT22;6349;50.904;6.136;2023-01-19T12:42:10;2.90;99.90
12568;DHT22;6349;50.904;6.136;2023-01-19T12:46:29;2.90;99.90
12568;DHT22;6349;50.904;6.136;2023-01-19T12:48:30;2.90;99.90
12568;DHT22;6349;50.904;6.136;2023-01-19T12:50:35;2.90;99.90
12568;DHT22;6349;50.904;6.136;2023-01-19T12:52:40;2.90;99.90
12568;DHT22;6349;50.904;6.136;2023-01-19T12:54:57;2.90;99.90
12568;DHT22;6349;50.904;6.136;2023-01-19T12:57:02;2.90;99.90
12568;DHT22;6349;50.904;6.136;2023-01-19T12:59:05;2.90;99.90
12568;DHT22;6349;50.904;6.136;2023-01-19T13:01:21;2.90;99.90
12568;DHT22;6349;50.904;6.136;2023-01-19T13:11:12;3.00;99.90
12568;DHT22;6349;50.904;6.136;2023-01-19T13:13:17;2.90;99.90
12568;DHT22;6349;50.904;6.136;2023-01-19T13:15:34;2.90;99.90
12568;DHT22;6349;50.904;6.136;2023-01-19T13:17:48;2.80;99.90
12568;DHT22;6349;50.904;6.136;2023-01-19T13:19:57;3.00;99.90
12568;DHT22;6349;50.904;6.136;2023-01-19T13:25:04;3.10;99.90
12568;DHT22;6349;50.904;6.136;2023-01-19T13:27:15;3.10;99.90
12568;DHT22;6349;50.904;6.136;2023-01-19T13:29:39;3.10;99.90
12568;DHT22;6349;50.904;6.136;2023-01-19T13:31:43;3.10;99.90
12568;DHT22;6349;50.904;6.136;2023-01-19T13:33:49;3.10;99.90
12568;DHT22;6349;50.904;6.136;2023-01-19T13:35:56;3.10;99.90
12568;DHT22;6349;50.904;6.136;2023-01-19T13:38:01;3.10;99.90
12568;DHT22;6349;50.904;6.136;2023-01-19T13:40:06;3.10;99.90
12568;DHT22;6349;50.904;6.136;2023-01-19T13:42:15;3.10;99.90
12568;DHT22;6349;50.904;6.136;2023-01-19T13:44:24;3.00;99.90
12568;DHT22;6349;50.904;6.136;2023-01-19T13:46:28;3.00;99.90
12568;DHT22;6349;50.904;6.136;2023-01-19T13:48:30;3.00;99.90
12568;DHT22;6349;50.904;6.136;2023-01-19T13:50:35;3.00;99.90
12568;DHT22;6349;50.904;6.136;2023-01-19T13:52:42;3.00;99.90